createdAt,value
2022-09-27T00:00:42.955Z,24.23
2022-09-27T00:01:27.876Z,24.23
2022-09-27T00:02:15.027Z,24.24
2022-09-27T00:03:02.520Z,24.22
2022-09-27T00:03:46.357Z,24.21
2022-09-27T00:04:34.479Z,24.21
2022-09-27T00:05:21.259Z,24.20
2022-09-27T00:06:06.417Z,24.22
2022-09-27T00:06:50.976Z,24.21
2022-09-27T00:07:34.366Z,24.20
2022-09-27T00:08:22.667Z,24.19
2022-09-27T00:09:12.619Z,24.21
2022-09-27T00:09:57.905Z,24.20
2022-09-27T00:10:42.678Z,24.20
2022-09-27T00:11:26.985Z,24.21
2022-09-27T00:12:10.312Z,24.20
2022-09-27T00:12:54.578Z,24.20
2022-09-27T00:13:42.655Z,24.20
2022-09-27T00:14:24.123Z,24.22
2022-09-27T00:15:08.065Z,24.23
2022-09-27T00:15:55.331Z,24.19
2022-09-27T00:16:38.582Z,24.22
2022-09-27T00:17:22.291Z,24.23
2022-09-27T00:18:07.562Z,24.20
2022-09-27T00:18:50.743Z,24.17
2022-09-27T00:19:32.637Z,24.17
2022-09-27T00:20:16.077Z,24.18
2022-09-27T00:20:58.935Z,24.19
2022-09-27T00:21:44.118Z,24.19
2022-09-27T00:22:27.320Z,24.20
2022-09-27T00:23:11.258Z,24.19
2022-09-27T00:23:55.666Z,24.20
2022-09-27T00:24:40.604Z,24.18
2022-09-27T00:25:23.832Z,24.18
2022-09-27T00:26:08.225Z,24.19
2022-09-27T00:26:52.510Z,24.21
2022-09-27T00:27:40.439Z,24.18
2022-09-27T00:28:24.299Z,24.20
2022-09-27T00:29:09.210Z,24.19
2022-09-27T00:29:52.361Z,24.21
2022-09-27T00:30:36.273Z,24.23
2022-09-27T00:31:20.523Z,24.24
2022-09-27T00:32:05.209Z,24.25
2022-09-27T00:32:54.650Z,24.21
2022-09-27T00:33:40.038Z,24.21
2022-09-27T00:34:26.994Z,24.18
2022-09-27T00:35:10.333Z,24.20
2022-09-27T00:35:55.965Z,24.20
2022-09-27T00:36:41.743Z,24.20
2022-09-27T00:37:28.298Z,24.18
2022-09-27T00:38:10.541Z,24.16
2022-09-27T00:38:57.417Z,24.17
2022-09-27T00:39:40.117Z,24.21
2022-09-27T00:40:24.422Z,24.20
2022-09-27T00:41:08.172Z,24.17
2022-09-27T00:41:53.351Z,24.20
2022-09-27T00:42:38.579Z,24.20
2022-09-27T00:43:28.776Z,24.20
2022-09-27T00:44:13.725Z,24.22
2022-09-27T00:45:01.533Z,24.22
2022-09-27T00:45:47.784Z,24.21
2022-09-27T00:46:33.233Z,24.20
2022-09-27T00:47:16.431Z,24.20
2022-09-27T00:48:00.329Z,24.20
2022-09-27T00:48:46.751Z,24.19
2022-09-27T00:49:32.815Z,24.17
2022-09-27T00:50:16.612Z,24.21
2022-09-27T00:51:01.292Z,24.19
2022-09-27T00:51:45.752Z,24.20
2022-09-27T00:52:30.686Z,24.23
2022-09-27T00:53:18.245Z,24.23
2022-09-27T00:54:04.860Z,24.22
2022-09-27T00:54:50.077Z,24.20
2022-09-27T00:55:34.868Z,24.22
2022-09-27T00:56:20.467Z,24.21
2022-09-27T00:57:06.011Z,24.15
2022-09-27T00:57:50.474Z,24.18
2022-09-27T00:58:35.639Z,24.21
2022-09-27T00:59:21.253Z,24.19
2022-09-27T01:00:08.475Z,24.19
2022-09-27T01:00:53.952Z,24.16
2022-09-27T01:01:37.890Z,24.18
2022-09-27T01:02:22.198Z,24.17
2022-09-27T01:03:03.114Z,24.16
2022-09-27T01:03:46.267Z,24.16
2022-09-27T01:04:30.350Z,24.19
2022-09-27T01:05:14.067Z,24.19
2022-09-27T01:05:55.915Z,24.16
2022-09-27T01:06:42.167Z,24.18
2022-09-27T01:07:25.443Z,24.19
2022-09-27T01:08:07.869Z,24.19
2022-09-27T01:08:51.598Z,24.18
2022-09-27T01:09:35.637Z,24.18
2022-09-27T01:10:20.112Z,24.16
2022-09-27T01:11:02.696Z,24.19
2022-09-27T01:11:46.754Z,24.18
2022-09-27T01:12:31.038Z,24.18
2022-09-27T01:13:13.119Z,24.18
2022-09-27T01:13:59.243Z,24.18
2022-09-27T01:14:46.699Z,24.21
2022-09-27T01:15:30.957Z,24.19
2022-09-27T01:16:18.432Z,24.19
2022-09-27T01:17:02.479Z,24.19
2022-09-27T01:17:44.363Z,24.13
2022-09-27T01:18:30.984Z,24.14
2022-09-27T01:19:15.240Z,24.17
2022-09-27T01:19:58.332Z,24.15
2022-09-27T01:20:44.780Z,24.14
2022-09-27T01:21:29.635Z,24.16
2022-09-27T01:22:14.489Z,24.18
2022-09-27T01:22:57.030Z,24.16
2022-09-27T01:23:43.038Z,24.19
2022-09-27T01:24:26.548Z,24.22
2022-09-27T01:25:12.042Z,24.17
2022-09-27T01:25:57.867Z,24.16
2022-09-27T01:26:43.518Z,24.14
2022-09-27T01:27:28.345Z,24.16
2022-09-27T01:28:11.708Z,24.16
2022-09-27T01:28:58.315Z,24.16
2022-09-27T01:29:42.220Z,24.19
2022-09-27T01:30:29.392Z,24.18
2022-09-27T01:31:14.795Z,24.21
2022-09-27T01:31:58.337Z,24.20
2022-09-27T01:32:42.634Z,24.19
2022-09-27T01:33:24.087Z,24.20
2022-09-27T01:34:09.327Z,24.19
2022-09-27T01:34:52.715Z,24.20
2022-09-27T01:35:36.256Z,24.18
2022-09-27T01:36:21.160Z,24.20
2022-09-27T01:37:05.446Z,24.18
2022-09-27T01:37:49.099Z,24.16
2022-09-27T01:38:31.919Z,24.12
2022-09-27T01:39:16.290Z,24.15
2022-09-27T01:40:01.102Z,24.14
2022-09-27T01:40:47.164Z,24.16
2022-09-27T01:41:31.430Z,24.17
2022-09-27T01:42:21.302Z,24.17
2022-09-27T01:43:05.034Z,24.17
2022-09-27T01:43:47.171Z,24.15
2022-09-27T01:44:33.282Z,24.19
2022-09-27T01:45:18.751Z,24.17
2022-09-27T01:46:07.506Z,24.15
2022-09-27T01:46:55.165Z,24.19
2022-09-27T01:47:40.659Z,24.18
2022-09-27T01:48:25.555Z,24.20
2022-09-27T01:49:07.318Z,24.19
2022-09-27T01:49:50.054Z,24.21
2022-09-27T01:50:33.879Z,24.19
2022-09-27T01:51:17.680Z,24.17
2022-09-27T01:52:01.281Z,24.14
2022-09-27T01:52:44.591Z,24.14
2022-09-27T01:53:29.347Z,24.16
2022-09-27T01:54:11.769Z,24.18
2022-09-27T01:54:54.841Z,24.19
2022-09-27T01:55:38.552Z,24.18
2022-09-27T01:56:22.607Z,24.16
2022-09-27T01:57:06.824Z,24.15
2022-09-27T01:57:51.061Z,24.18
2022-09-27T01:58:39.710Z,24.18
2022-09-27T01:59:29.199Z,24.20
2022-09-27T02:00:13.933Z,24.20
2022-09-27T02:01:01.460Z,24.18
2022-09-27T02:01:47.112Z,24.20
2022-09-27T02:02:31.343Z,24.18
2022-09-27T02:03:15.708Z,24.18
2022-09-27T02:03:57.704Z,24.17
2022-09-27T02:04:41.064Z,24.17
2022-09-27T02:05:24.683Z,24.19
2022-09-27T02:06:09.334Z,24.17
2022-09-27T02:06:52.877Z,24.16
2022-09-27T02:07:37.529Z,24.17
2022-09-27T02:08:22.786Z,24.13
2022-09-27T02:09:06.504Z,24.16
2022-09-27T02:09:53.752Z,24.17
2022-09-27T02:10:37.186Z,24.17
2022-09-27T02:11:21.466Z,24.18
2022-09-27T02:12:04.889Z,24.18
2022-09-27T02:12:49.265Z,24.18
2022-09-27T02:13:36.658Z,24.19
2022-09-27T02:14:24.672Z,24.17
2022-09-27T02:15:05.895Z,24.14
2022-09-27T02:15:51.960Z,24.14
2022-09-27T02:16:37.910Z,24.13
2022-09-27T02:17:21.476Z,24.12
2022-09-27T02:18:07.380Z,24.14
2022-09-27T02:18:51.842Z,24.15
2022-09-27T02:19:39.049Z,24.18
2022-09-27T02:20:27.555Z,24.18
2022-09-27T02:21:12.526Z,24.14
2022-09-27T02:21:57.550Z,24.15
2022-09-27T02:22:44.584Z,24.14
2022-09-27T02:23:27.978Z,24.12
2022-09-27T02:24:13.093Z,24.15
2022-09-27T02:24:59.726Z,24.18
2022-09-27T02:25:41.854Z,24.17
2022-09-27T02:26:27.662Z,24.19
2022-09-27T02:27:13.397Z,24.16
2022-09-27T02:28:01.478Z,24.11
2022-09-27T02:28:49.142Z,24.12
2022-09-27T02:29:37.064Z,24.16
2022-09-27T02:30:23.934Z,24.12
2022-09-27T02:31:15.866Z,24.12
2022-09-27T02:32:00.900Z,24.09
2022-09-27T02:32:49.229Z,24.13
2022-09-27T02:33:33.885Z,24.16
2022-09-27T02:34:17.545Z,24.17
2022-09-27T02:35:02.425Z,24.17
2022-09-27T02:35:46.215Z,24.16
2022-09-27T02:36:33.741Z,24.15
2022-09-27T02:37:18.809Z,24.13
2022-09-27T02:38:02.689Z,24.17
2022-09-27T02:38:48.292Z,24.14
2022-09-27T02:39:33.567Z,24.11
2022-09-27T02:40:19.935Z,24.12
2022-09-27T02:41:09.667Z,24.11
2022-09-27T02:41:54.908Z,24.11
2022-09-27T02:42:40.357Z,24.11
2022-09-27T02:43:28.180Z,24.09
2022-09-27T02:44:15.403Z,24.12
2022-09-27T02:45:00.680Z,24.14
2022-09-27T02:45:44.063Z,24.12
2022-09-27T02:46:26.379Z,24.11
2022-09-27T02:47:10.858Z,24.12
2022-09-27T02:47:54.632Z,24.14
2022-09-27T02:48:40.245Z,24.12
2022-09-27T02:49:26.877Z,24.10
2022-09-27T02:50:12.369Z,24.09
2022-09-27T02:50:57.587Z,24.15
2022-09-27T02:51:38.152Z,24.12
2022-09-27T02:52:25.558Z,24.07
2022-09-27T02:53:07.228Z,24.09
2022-09-27T02:53:53.959Z,24.11
2022-09-27T02:54:42.324Z,24.13
2022-09-27T02:55:31.194Z,24.13
2022-09-27T02:56:16.920Z,24.09
2022-09-27T02:57:04.287Z,24.12
2022-09-27T02:57:45.970Z,24.08
2022-09-27T02:58:31.009Z,24.08
2022-09-27T02:59:17.217Z,24.09
2022-09-27T03:00:02.591Z,24.11
2022-09-27T03:00:45.650Z,24.10
2022-09-27T03:01:30.331Z,24.09
2022-09-27T03:02:15.656Z,24.08
2022-09-27T03:02:57.125Z,24.12
2022-09-27T03:03:41.358Z,24.11
2022-09-27T03:04:25.487Z,24.09
2022-09-27T03:05:08.970Z,24.08
2022-09-27T03:05:55.256Z,24.13
2022-09-27T03:06:39.990Z,24.12
2022-09-27T03:07:24.345Z,24.13
2022-09-27T03:08:05.235Z,24.11
2022-09-27T03:08:50.464Z,24.11
2022-09-27T03:09:35.144Z,24.09
2022-09-27T03:10:21.353Z,24.11
2022-09-27T03:11:05.657Z,24.09
2022-09-27T03:11:51.386Z,24.10
2022-09-27T03:12:37.354Z,24.11
2022-09-27T03:13:24.770Z,24.14
2022-09-27T03:14:11.741Z,24.13
2022-09-27T03:14:57.034Z,24.14
2022-09-27T03:15:42.509Z,24.13
2022-09-27T03:16:29.703Z,24.12
2022-09-27T03:17:14.694Z,24.14
2022-09-27T03:18:02.673Z,24.11
2022-09-27T03:18:47.359Z,24.11
2022-09-27T03:19:32.469Z,24.12
2022-09-27T03:20:16.296Z,24.16
2022-09-27T03:20:59.587Z,24.09
2022-09-27T03:21:44.280Z,24.12
2022-09-27T03:22:33.933Z,24.11
2022-09-27T03:23:20.043Z,24.13
2022-09-27T03:29:02.465Z,24.11
2022-09-27T03:29:49.678Z,24.09
2022-09-27T03:30:35.679Z,24.08
2022-09-27T03:31:22.657Z,24.05
2022-09-27T03:32:10.179Z,24.12
2022-09-27T03:32:56.105Z,24.12
2022-09-27T03:33:42.233Z,24.12
2022-09-27T03:34:27.340Z,24.09
2022-09-27T03:35:12.460Z,24.06
2022-09-27T03:35:57.056Z,24.08
2022-09-27T03:36:42.334Z,24.08
2022-09-27T03:37:29.615Z,24.12
2022-09-27T03:38:14.550Z,24.10
2022-09-27T03:38:58.780Z,24.11
2022-09-27T03:39:41.242Z,24.11
2022-09-27T03:40:25.545Z,24.09
2022-09-27T03:41:09.242Z,24.10
2022-09-27T03:41:52.896Z,24.06
2022-09-27T03:42:36.499Z,24.08
2022-09-27T03:43:21.309Z,24.10
2022-09-27T03:44:04.296Z,24.13
2022-09-27T03:44:46.225Z,24.12
2022-09-27T03:45:31.454Z,24.13
2022-09-27T03:46:14.365Z,24.11
2022-09-27T03:46:59.200Z,24.14
2022-09-27T03:47:42.855Z,24.16
2022-09-27T03:48:28.073Z,24.11
2022-09-27T03:49:11.724Z,24.12
2022-09-27T03:49:52.422Z,24.12
2022-09-27T03:50:39.796Z,24.11
2022-09-27T03:51:23.677Z,24.09
2022-09-27T03:52:09.909Z,24.12
2022-09-27T03:52:53.531Z,24.13
2022-09-27T03:53:37.495Z,24.13
2022-09-27T03:54:23.813Z,24.12
2022-09-27T03:55:06.915Z,24.13
2022-09-27T03:55:53.462Z,24.12
2022-09-27T03:56:39.154Z,24.11
2022-09-27T03:57:26.654Z,24.09
2022-09-27T03:58:12.886Z,24.10
2022-09-27T03:58:58.917Z,24.13
2022-09-27T03:59:46.367Z,24.13
2022-09-27T04:00:31.565Z,24.11
2022-09-27T04:01:16.374Z,24.10
2022-09-27T04:02:01.896Z,24.11
2022-09-27T04:02:47.181Z,24.12
2022-09-27T04:03:31.596Z,24.11
2022-09-27T04:04:17.469Z,24.13
2022-09-27T04:05:03.452Z,24.12
2022-09-27T04:05:54.012Z,24.12
2022-09-27T04:06:39.033Z,24.11
2022-09-27T04:07:24.894Z,24.13
2022-09-27T04:08:10.190Z,24.15
2022-09-27T04:08:54.942Z,24.14
2022-09-27T04:09:44.524Z,24.12
2022-09-27T04:10:28.355Z,24.16
2022-09-27T04:11:18.512Z,24.15
2022-09-27T04:12:03.544Z,24.12
2022-09-27T04:12:48.984Z,24.16
2022-09-27T04:13:33.438Z,24.17
2022-09-27T04:14:16.681Z,24.13
2022-09-27T04:15:00.904Z,24.09
2022-09-27T04:15:48.649Z,24.11
2022-09-27T04:16:38.249Z,24.11
2022-09-27T04:17:22.729Z,24.11
2022-09-27T04:18:07.720Z,24.11
2022-09-27T04:18:51.595Z,24.12
2022-09-27T04:19:37.021Z,24.11
2022-09-27T04:20:19.813Z,24.11
2022-09-27T04:21:03.833Z,24.13
2022-09-27T04:21:51.089Z,24.13
2022-09-27T04:22:36.273Z,24.11
2022-09-27T04:23:21.337Z,24.13
2022-09-27T04:24:06.409Z,24.12
2022-09-27T04:24:53.413Z,24.09
2022-09-27T04:25:38.156Z,24.11
2022-09-27T04:26:23.314Z,24.05
2022-09-27T04:27:08.241Z,24.08
2022-09-27T04:27:52.919Z,24.07
2022-09-27T04:28:37.522Z,24.10
2022-09-27T04:29:24.942Z,24.05
2022-09-27T04:30:12.654Z,24.08
2022-09-27T04:30:58.227Z,24.09
2022-09-27T04:31:45.420Z,24.08
2022-09-27T04:32:34.359Z,24.10
2022-09-27T04:33:19.239Z,24.07
2022-09-27T04:34:06.544Z,24.05
2022-09-27T04:34:54.036Z,24.10
2022-09-27T04:35:39.116Z,24.12
2022-09-27T04:36:23.538Z,24.10
2022-09-27T04:37:07.982Z,24.09
2022-09-27T04:37:52.247Z,24.12
2022-09-27T04:38:40.665Z,24.19
2022-09-27T04:39:27.525Z,24.11
2022-09-27T04:40:13.010Z,24.08
2022-09-27T04:40:59.621Z,24.08
2022-09-27T04:41:44.172Z,24.12
2022-09-27T04:42:31.447Z,24.09
2022-09-27T04:43:22.913Z,24.10
2022-09-27T04:44:06.398Z,24.09
2022-09-27T04:44:52.813Z,24.08
2022-09-27T04:45:38.670Z,24.09
2022-09-27T04:46:19.800Z,24.09
2022-09-27T04:47:53.781Z,24.11
2022-09-27T04:48:43.951Z,24.14
2022-09-27T04:49:30.171Z,24.12
2022-09-27T04:50:16.298Z,24.07
2022-09-27T04:51:03.336Z,24.06
2022-09-27T04:51:45.550Z,24.07
2022-09-27T04:52:32.034Z,24.04
2022-09-27T04:53:15.091Z,24.05
2022-09-27T04:53:58.995Z,24.06
2022-09-27T04:54:43.785Z,24.07
2022-09-27T04:55:27.379Z,24.04
2022-09-27T04:56:11.315Z,24.08
2022-09-27T04:56:52.657Z,24.09
2022-09-27T04:57:38.860Z,24.12
2022-09-27T04:58:23.330Z,24.05
2022-09-27T04:59:10.810Z,24.07
2022-09-27T04:59:55.614Z,24.04
2022-09-27T05:00:41.014Z,24.07
2022-09-27T05:01:26.904Z,24.06
2022-09-27T05:02:09.066Z,24.08
2022-09-27T05:02:56.978Z,24.07
2022-09-27T05:03:42.635Z,24.06
2022-09-27T05:04:25.645Z,24.07
2022-09-27T05:05:09.776Z,24.07
2022-09-27T05:05:53.658Z,24.07
2022-09-27T05:06:34.134Z,24.12
2022-09-27T05:07:22.117Z,24.09
2022-09-27T05:08:06.694Z,24.07
2022-09-27T05:08:52.763Z,24.05
2022-09-27T05:09:39.545Z,24.06
2022-09-27T05:10:25.763Z,24.07
2022-09-27T05:11:12.594Z,24.07
2022-09-27T05:11:56.917Z,24.08
2022-09-27T05:12:43.113Z,24.08
2022-09-27T05:13:27.203Z,24.07
2022-09-27T05:14:11.635Z,24.07
2022-09-27T05:14:56.133Z,24.05
2022-09-27T05:15:41.834Z,24.06
2022-09-27T05:16:23.692Z,24.08
2022-09-27T05:17:05.038Z,24.07
2022-09-27T05:17:52.780Z,24.06
2022-09-27T05:18:36.385Z,24.08
2022-09-27T05:19:22.500Z,24.13
2022-09-27T05:20:07.127Z,24.11
2022-09-27T05:20:53.225Z,24.07
2022-09-27T05:21:39.039Z,24.08
2022-09-27T05:22:22.632Z,24.16
2022-09-27T05:23:10.568Z,24.09
2022-09-27T05:23:54.153Z,24.12
2022-09-27T05:24:38.553Z,24.12
2022-09-27T05:25:22.824Z,24.14
2022-09-27T05:26:10.185Z,24.13
2022-09-27T05:26:51.312Z,24.12
2022-09-27T05:27:36.579Z,24.14
2022-09-27T05:28:21.133Z,24.16
2022-09-27T05:29:05.748Z,24.11
2022-09-27T05:29:50.444Z,24.11
2022-09-27T05:30:39.566Z,24.09
2022-09-27T05:31:28.059Z,24.12
2022-09-27T05:32:10.874Z,24.14
2022-09-27T05:32:55.970Z,24.10
2022-09-27T05:33:39.642Z,24.10
2022-09-27T05:34:25.669Z,24.12
2022-09-27T05:35:10.296Z,24.10
2022-09-27T05:35:56.339Z,24.06
2022-09-27T05:36:43.165Z,24.09
2022-09-27T05:37:32.856Z,24.11
2022-09-27T05:38:19.062Z,24.07
2022-09-27T05:39:02.028Z,24.09
2022-09-27T05:39:48.234Z,24.09
2022-09-27T05:40:41.140Z,24.07
2022-09-27T05:41:24.705Z,24.07
2022-09-27T05:42:10.070Z,24.12
2022-09-27T05:43:02.495Z,24.14
2022-09-27T05:43:47.757Z,24.13
2022-09-27T05:44:35.153Z,24.07
2022-09-27T05:45:22.318Z,24.09
2022-09-27T05:46:08.925Z,24.09
2022-09-27T05:46:50.463Z,24.05
2022-09-27T05:47:38.728Z,24.04
2022-09-27T05:48:25.064Z,24.04
2022-09-27T05:49:11.328Z,24.09
2022-09-27T05:49:56.091Z,24.07
2022-09-27T05:50:40.823Z,24.11
2022-09-27T05:51:27.868Z,24.11
2022-09-27T05:52:13.241Z,24.08
2022-09-27T05:52:59.119Z,24.10
2022-09-27T05:53:45.265Z,24.13
2022-09-27T05:54:32.299Z,24.09
2022-09-27T05:55:18.004Z,24.06
2022-09-27T05:56:06.573Z,24.08
2022-09-27T05:56:50.838Z,24.10
2022-09-27T05:57:36.848Z,24.08
2022-09-27T05:58:21.274Z,24.07
2022-09-27T05:59:05.926Z,24.11
2022-09-27T05:59:54.315Z,24.09
2022-09-27T06:00:42.088Z,24.10
2022-09-27T06:01:28.105Z,24.09
2022-09-27T06:02:10.765Z,24.12
2022-09-27T06:02:57.486Z,24.11
2022-09-27T06:03:44.606Z,24.11
2022-09-27T06:04:32.421Z,24.08
2022-09-27T06:05:17.747Z,24.08
2022-09-27T06:06:01.168Z,24.11
2022-09-27T06:06:46.513Z,24.13
2022-09-27T06:07:29.224Z,24.12
2022-09-27T06:08:15.527Z,24.13
2022-09-27T06:09:46.584Z,24.07
2022-09-27T06:10:32.404Z,24.13
2022-09-27T06:11:19.232Z,24.14
2022-09-27T06:12:03.833Z,24.13
2022-09-27T06:12:48.180Z,24.19
2022-09-27T06:13:38.051Z,24.13
2022-09-27T06:14:24.249Z,24.13
2022-09-27T06:15:10.253Z,24.19
2022-09-27T06:15:56.506Z,24.24
2022-09-27T06:16:40.828Z,24.20
2022-09-27T06:17:24.810Z,24.21
2022-09-27T06:18:08.820Z,24.16
2022-09-27T06:18:54.746Z,24.14
2022-09-27T06:19:38.690Z,24.11
2022-09-27T06:20:21.836Z,24.11
2022-09-27T06:21:06.832Z,24.10
2022-09-27T06:21:49.623Z,24.07
2022-09-27T06:22:34.733Z,24.11
2022-09-27T06:23:16.079Z,24.08
2022-09-27T06:24:00.127Z,24.09
2022-09-27T06:24:45.974Z,24.11
2022-09-27T06:25:30.590Z,24.15
2022-09-27T06:26:16.149Z,24.24
2022-09-27T06:27:04.259Z,24.22
2022-09-27T06:27:53.187Z,24.21
2022-09-27T06:28:38.538Z,24.20
2022-09-27T06:29:24.169Z,24.21
2022-09-27T06:30:13.216Z,24.23
2022-09-27T06:30:58.459Z,24.21
2022-09-27T06:31:44.127Z,24.16
2022-09-27T06:32:28.999Z,24.13
2022-09-27T06:33:15.227Z,24.19
2022-09-27T06:33:58.341Z,24.21
2022-09-27T06:34:44.796Z,24.31
2022-09-27T06:35:31.898Z,24.27
2022-09-27T06:37:06.414Z,24.20
2022-09-27T06:37:51.387Z,24.18
2022-09-27T06:38:36.795Z,24.11
2022-09-27T06:39:18.202Z,24.12
2022-09-27T06:40:02.010Z,24.16
2022-09-27T06:40:46.325Z,24.20
2022-09-27T06:41:34.962Z,24.23
2022-09-27T06:42:20.682Z,24.27
2022-09-27T06:43:05.494Z,24.28
2022-09-27T06:43:51.862Z,24.32
2022-09-27T06:44:33.629Z,24.27
2022-09-27T06:45:18.539Z,24.25
2022-09-27T06:46:04.080Z,24.20
2022-09-27T06:46:50.572Z,24.20
2022-09-27T06:47:35.218Z,24.21
2022-09-27T06:48:18.623Z,24.19
2022-09-27T06:49:07.447Z,24.19
2022-09-27T06:49:50.995Z,24.20
2022-09-27T06:50:36.544Z,24.18
2022-09-27T06:51:21.664Z,24.17
2022-09-27T06:52:06.392Z,24.14
2022-09-27T06:52:52.166Z,24.14
2022-09-27T06:53:40.817Z,24.14
2022-09-27T06:54:23.886Z,24.19
2022-09-27T06:55:08.656Z,24.21
2022-09-27T06:55:53.627Z,24.20
2022-09-27T06:56:40.996Z,24.21
2022-09-27T06:57:25.789Z,24.17
2022-09-27T06:58:11.399Z,24.18
2022-09-27T06:58:57.791Z,24.23
2022-09-27T06:59:42.836Z,24.20
2022-09-27T07:00:27.273Z,24.20
2022-09-27T07:01:12.143Z,24.26
2022-09-27T07:01:58.629Z,24.21
2022-09-27T07:02:53.509Z,24.19
2022-09-27T07:03:41.343Z,24.19
2022-09-27T07:04:29.746Z,24.16
2022-09-27T07:05:16.841Z,24.21
2022-09-27T07:05:58.715Z,24.16
2022-09-27T07:06:46.327Z,24.19
2022-09-27T07:07:29.704Z,24.15
2022-09-27T07:08:15.318Z,24.14
2022-09-27T07:08:58.843Z,24.17
2022-09-27T07:09:43.857Z,24.15
2022-09-27T07:10:28.397Z,24.11
2022-09-27T07:11:09.860Z,24.12
2022-09-27T07:11:57.263Z,24.09
2022-09-27T07:12:41.453Z,24.10
2022-09-27T07:13:29.932Z,24.12
2022-09-27T07:14:16.112Z,24.11
2022-09-27T07:15:03.613Z,24.11
2022-09-27T07:15:47.918Z,24.11
2022-09-27T07:16:34.931Z,24.14
2022-09-27T07:17:20.105Z,24.13
2022-09-27T07:18:04.952Z,24.10
2022-09-27T07:18:49.174Z,24.11
2022-09-27T07:19:35.993Z,24.14
2022-09-27T07:20:20.574Z,24.13
2022-09-27T07:21:02.472Z,24.10
2022-09-27T07:21:47.868Z,24.10
2022-09-27T07:22:32.247Z,24.09
2022-09-27T07:23:17.162Z,24.09
2022-09-27T07:24:01.696Z,24.17
2022-09-27T07:24:45.563Z,24.16
2022-09-27T07:25:29.695Z,24.24
2022-09-27T07:26:11.305Z,24.17
2022-09-27T07:26:56.854Z,24.14
2022-09-27T07:27:41.753Z,24.14
2022-09-27T07:28:26.283Z,24.18
2022-09-27T07:29:10.655Z,24.11
2022-09-27T07:29:54.775Z,24.08
2022-09-27T07:30:39.788Z,24.23
2022-09-27T07:31:20.869Z,24.18
2022-09-27T07:32:07.114Z,24.13
2022-09-27T07:32:52.168Z,24.18
2022-09-27T07:33:39.936Z,24.21
2022-09-27T07:34:25.731Z,24.17
2022-09-27T07:35:10.358Z,24.15
2022-09-27T07:35:56.100Z,24.28
2022-09-27T07:36:38.847Z,24.22
2022-09-27T07:37:25.194Z,24.19
2022-09-27T07:38:08.624Z,24.19
2022-09-27T07:38:52.692Z,24.27
2022-09-27T07:39:38.654Z,24.23
2022-09-27T07:40:24.645Z,24.13
2022-09-27T07:41:11.157Z,24.13
2022-09-27T07:41:55.903Z,24.08
2022-09-27T07:42:41.778Z,24.11
2022-09-27T07:43:27.410Z,24.08
2022-09-27T07:44:12.245Z,24.09
2022-09-27T07:44:56.454Z,24.19
2022-09-27T07:45:40.757Z,24.19
2022-09-27T07:46:23.779Z,24.17
2022-09-27T07:47:08.597Z,24.12
2022-09-27T07:47:51.310Z,24.09
2022-09-27T07:48:35.990Z,24.08
2022-09-27T07:49:19.592Z,24.03
2022-09-27T07:50:04.326Z,24.04
2022-09-27T07:50:50.084Z,24.06
2022-09-27T07:51:34.732Z,24.07
2022-09-27T07:52:23.648Z,24.07
2022-09-27T07:53:10.017Z,24.08
2022-09-27T07:53:57.407Z,24.09
2022-09-27T07:54:41.229Z,24.09
2022-09-27T07:55:25.621Z,24.08
2022-09-27T07:56:09.556Z,24.12
2022-09-27T07:56:51.703Z,24.09
2022-09-27T07:57:37.392Z,24.06
2022-09-27T07:58:21.159Z,24.14
2022-09-27T07:59:06.536Z,24.11
2022-09-27T07:59:51.563Z,24.11
2022-09-27T08:00:37.775Z,24.07
2022-09-27T08:01:20.888Z,24.07
2022-09-27T08:02:07.479Z,24.01
2022-09-27T08:02:55.101Z,24.11
2022-09-27T08:03:41.097Z,24.12
2022-09-27T08:04:27.208Z,24.14
2022-09-27T08:05:12.556Z,24.15
2022-09-27T08:06:00.931Z,24.14
2022-09-27T08:06:43.941Z,24.11
2022-09-27T08:07:29.182Z,24.12
2022-09-27T08:08:14.096Z,24.08
2022-09-27T08:08:57.609Z,24.09
2022-09-27T08:09:41.907Z,24.04
2022-09-27T08:10:28.536Z,24.04
2022-09-27T08:11:12.705Z,24.04
2022-09-27T08:11:54.989Z,24.09
2022-09-27T08:12:39.914Z,24.09
2022-09-27T08:13:24.361Z,24.06
2022-09-27T08:14:08.558Z,24.05
2022-09-27T08:14:52.327Z,24.09
2022-09-27T08:15:36.058Z,24.12
2022-09-27T08:16:18.536Z,24.11
2022-09-27T08:17:03.261Z,24.09
2022-09-27T08:17:47.890Z,24.08
2022-09-27T08:18:31.717Z,24.08
2022-09-27T08:19:16.456Z,24.14
2022-09-27T08:20:02.217Z,24.09
2022-09-27T08:20:46.596Z,24.09
2022-09-27T08:21:35.826Z,24.19
2022-09-27T08:22:29.298Z,24.16
2022-09-27T08:23:16.294Z,24.12
2022-09-27T08:23:59.315Z,24.17
2022-09-27T08:24:44.811Z,24.09
2022-09-27T08:25:31.864Z,24.09
2022-09-27T08:26:16.126Z,24.09
2022-09-27T08:26:59.075Z,24.18
2022-09-27T08:27:46.710Z,24.24
2022-09-27T08:28:31.536Z,24.15
2022-09-27T08:29:17.890Z,24.16
2022-09-27T08:30:03.033Z,24.09
2022-09-27T08:30:47.068Z,24.15
2022-09-27T08:31:29.967Z,24.23
2022-09-27T08:32:20.695Z,24.20
2022-09-27T08:33:05.461Z,24.13
2022-09-27T08:33:50.218Z,24.06
2022-09-27T08:34:34.403Z,24.13
2022-09-27T08:35:20.624Z,24.14
2022-09-27T08:36:08.193Z,24.21
2022-09-27T08:36:53.208Z,24.24
2022-09-27T08:37:39.576Z,24.16
2022-09-27T08:38:25.381Z,24.16
2022-09-27T08:39:20.309Z,24.24
2022-09-27T08:40:07.885Z,24.17
2022-09-27T08:40:52.480Z,24.16
2022-09-27T08:41:37.381Z,24.15
2022-09-27T08:42:23.495Z,24.17
2022-09-27T08:43:10.162Z,24.09
2022-09-27T08:43:55.195Z,24.13
2022-09-27T08:44:39.026Z,24.15
2022-09-27T08:45:24.584Z,24.09
2022-09-27T08:46:12.250Z,24.16
2022-09-27T08:47:03.011Z,24.16
2022-09-27T08:47:48.530Z,24.18
2022-09-27T08:48:33.917Z,24.19
2022-09-27T08:49:19.245Z,24.16
2022-09-27T08:50:05.765Z,24.16
2022-09-27T08:50:48.587Z,24.18
2022-09-27T08:51:33.410Z,24.13
2022-09-27T08:52:25.900Z,24.13
2022-09-27T08:53:11.300Z,24.16
2022-09-27T08:53:54.683Z,24.15
2022-09-27T08:54:38.730Z,24.20
2022-09-27T08:55:24.674Z,24.19
2022-09-27T08:56:11.860Z,24.12
2022-09-27T08:56:52.915Z,24.13
2022-09-27T08:57:39.685Z,24.14
2022-09-27T08:58:24.601Z,24.08
2022-09-27T08:59:11.714Z,24.16
2022-09-27T08:59:57.479Z,24.17
2022-09-27T09:00:43.227Z,24.15
2022-09-27T09:01:29.042Z,24.09
2022-09-27T09:02:13.509Z,24.09
2022-09-27T09:02:57.853Z,24.05
2022-09-27T09:03:43.338Z,24.11
2022-09-27T09:04:28.711Z,24.06
2022-09-27T09:05:11.767Z,24.04
2022-09-27T09:05:58.792Z,24.12
2022-09-27T09:06:43.436Z,24.08
2022-09-27T09:07:25.517Z,24.10
2022-09-27T09:08:10.576Z,24.13
2022-09-27T09:08:56.367Z,24.13
2022-09-27T09:09:40.181Z,24.10
2022-09-27T09:10:24.404Z,24.12
2022-09-27T09:11:11.734Z,24.14
2022-09-27T09:11:57.195Z,24.12
2022-09-27T09:12:41.158Z,24.09
2022-09-27T09:13:27.293Z,24.13
2022-09-27T09:14:13.785Z,24.11
2022-09-27T09:15:00.491Z,24.07
2022-09-27T09:15:47.695Z,24.05
2022-09-27T09:16:32.331Z,24.11
2022-09-27T09:17:18.213Z,24.08
2022-09-27T09:18:08.758Z,24.05
2022-09-27T09:18:53.301Z,24.10
2022-09-27T09:19:38.363Z,24.11
2022-09-27T09:20:23.483Z,24.07
2022-09-27T09:21:08.257Z,24.10
2022-09-27T09:21:52.517Z,24.11
2022-09-27T09:22:34.780Z,24.11
2022-09-27T09:23:20.594Z,24.06
2022-09-27T09:24:05.316Z,24.09
2022-09-27T09:24:48.634Z,24.03
2022-09-27T09:25:32.575Z,24.09
2022-09-27T09:26:15.517Z,24.09
2022-09-27T09:27:00.389Z,24.16
2022-09-27T09:27:42.030Z,24.07
2022-09-27T09:28:28.598Z,24.05
2022-09-27T09:29:11.367Z,24.05
2022-09-27T09:29:54.498Z,24.05
2022-09-27T09:30:37.546Z,24.15
2022-09-27T09:31:20.798Z,24.07
2022-09-27T09:32:06.410Z,24.10
2022-09-27T09:32:48.530Z,24.11
2022-09-27T09:33:30.963Z,24.14
2022-09-27T09:34:17.316Z,24.10
2022-09-27T09:35:01.111Z,24.09
2022-09-27T09:35:45.056Z,24.18
2022-09-27T09:36:30.334Z,24.08
2022-09-27T09:37:15.722Z,24.11
2022-09-27T09:38:02.092Z,24.13
2022-09-27T09:38:44.986Z,24.08
2022-09-27T09:39:33.414Z,24.08
2022-09-27T09:40:16.802Z,24.19
2022-09-27T09:41:00.368Z,24.16
2022-09-27T09:41:44.798Z,24.09
2022-09-27T09:42:29.482Z,24.11
2022-09-27T09:43:10.456Z,24.14
2022-09-27T09:43:57.134Z,24.21
2022-09-27T09:44:41.751Z,24.12
2022-09-27T09:45:25.762Z,24.11
2022-09-27T09:46:10.448Z,24.12
2022-09-27T09:46:56.412Z,24.05
2022-09-27T09:47:42.593Z,24.06
2022-09-27T09:48:31.944Z,24.07
2022-09-27T09:49:15.799Z,24.04
2022-09-27T09:50:01.175Z,24.07